sensor_id;sensor_type;location;lat;lon;timestamp;temperature;humidity
43015;DHT22;28637;50.554;7.032;2023-02-28T00:03:35;0.70;99.90
43015;DHT22;28637;50.554;7.032;2023-02-28T00:08:37;0.70;99.90
43015;DHT22;28637;50.554;7.032;2023-02-28T00:13:40;0.30;99.90
43015;DHT22;28637;50.554;7.032;2023-02-28T00:18:41;0.00;99.90
43015;DHT22;28637;50.554;7.032;2023-02-28T00:23:42;-0.10;99.90
43015;DHT22;28637;50.554;7.032;2023-02-28T00:28:44;-0.30;99.90
43015;DHT22;28637;50.554;7.032;2023-02-28T00:33:44;-0.30;99.90
43015;DHT22;28637;50.554;7.032;2023-02-28T00:38:45;-0.40;99.90
43015;DHT22;28637;50.554;7.032;2023-02-28T00:43:46;-0.50;99.90
43015;DHT22;28637;50.554;7.032;2023-02-28T00:48:47;-0.50;99.90
43015;DHT22;28637;50.554;7.032;2023-02-28T00:53:47;-0.50;99.90
43015;DHT22;28637;50.554;7.032;2023-02-28T00:58:48;-0.40;99.90
43015;DHT22;28637;50.554;7.032;2023-02-28T01:03:49;-0.30;99.90
43015;DHT22;28637;50.554;7.032;2023-02-28T01:08:49;-0.30;99.90
43015;DHT22;28637;50.554;7.032;2023-02-28T01:13:50;-0.20;99.90
43015;DHT22;28637;50.554;7.032;2023-02-28T01:18:51;-0.50;99.90
43015;DHT22;28637;50.554;7.032;2023-02-28T01:23:52;-0.80;99.90
43015;DHT22;28637;50.554;7.032;2023-02-28T01:28:56;-0.80;99.90
43015;DHT22;28637;50.554;7.032;2023-02-28T01:33:57;-0.80;99.90
43015;DHT22;28637;50.554;7.032;2023-02-28T01:38:58;-0.70;99.90
43015;DHT22;28637;50.554;7.032;2023-02-28T01:49:26;-0.30;99.90
43015;DHT22;28637;50.554;7.032;2023-02-28T01:54:30;-0.20;99.90
43015;DHT22;28637;50.554;7.032;2023-02-28T02:04:45;-0.10;99.90
43015;DHT22;28637;50.554;7.032;2023-02-28T02:09:47;0.00;99.90
43015;DHT22;28637;50.554;7.032;2023-02-28T02:15:03;-0.10;99.90
43015;DHT22;28637;50.554;7.032;2023-02-28T02:25:53;-0.20;99.90
43015;DHT22;28637;50.554;7.032;2023-02-28T02:31:46;-0.20;99.90
43015;DHT22;28637;50.554;7.032;2023-02-28T02:36:39;-0.20;99.90
43015;DHT22;28637;50.554;7.032;2023-02-28T02:41:54;-0.30;99.90
43015;DHT22;28637;50.554;7.032;2023-02-28T02:47:17;-0.40;99.90
43015;DHT22;28637;50.554;7.032;2023-02-28T02:52:23;-0.50;99.90
43015;DHT22;28637;50.554;7.032;2023-02-28T02:57:34;-0.50;99.90
43015;DHT22;28637;50.554;7.032;2023-02-28T03:02:37;-0.50;99.90
43015;DHT22;28637;50.554;7.032;2023-02-28T03:07:38;-0.60;99.90
43015;DHT22;28637;50.554;7.032;2023-02-28T03:12:51;-0.50;99.90
43015;DHT22;28637;50.554;7.032;2023-02-28T03:18:04;-0.60;99.90
43015;DHT22;28637;50.554;7.032;2023-02-28T03:23:25;-0.60;99.90
43015;DHT22;28637;50.554;7.032;2023-02-28T03:33:43;-0.70;99.90
43015;DHT22;28637;50.554;7.032;2023-02-28T03:38:54;-0.80;99.90
43015;DHT22;28637;50.554;7.032;2023-02-28T03:44:29;-1.00;99.90
43015;DHT22;28637;50.554;7.032;2023-02-28T03:49:46;-1.00;99.90
43015;DHT22;28637;50.554;7.032;2023-02-28T03:54:52;-1.00;99.90
43015;DHT22;28637;50.554;7.032;2023-02-28T04:00:08;-1.00;99.90
43015;DHT22;28637;50.554;7.032;2023-02-28T04:05:12;-1.10;99.90
43015;DHT22;28637;50.554;7.032;2023-02-28T04:15:14;-1.90;99.90
43015;DHT22;28637;50.554;7.032;2023-02-28T04:20:15;-2.00;99.90
43015;DHT22;28637;50.554;7.032;2023-02-28T04:25:16;-2.30;99.90
43015;DHT22;28637;50.554;7.032;2023-02-28T04:30:16;-2.60;99.90
43015;DHT22;28637;50.554;7.032;2023-02-28T04:35:17;-2.70;99.90
43015;DHT22;28637;50.554;7.032;2023-02-28T04:40:18;-2.80;99.90
43015;DHT22;28637;50.554;7.032;2023-02-28T04:45:18;-2.90;99.90
43015;DHT22;28637;50.554;7.032;2023-02-28T04:50:19;-3.00;99.90
43015;DHT22;28637;50.554;7.032;2023-02-28T04:55:19;-3.10;99.90
43015;DHT22;28637;50.554;7.032;2023-02-28T05:00:20;-3.20;99.90
43015;DHT22;28637;50.554;7.032;2023-02-28T05:10:26;-3.10;99.90
43015;DHT22;28637;50.554;7.032;2023-02-28T05:15:27;-3.10;99.90
43015;DHT22;28637;50.554;7.032;2023-02-28T05:20:27;-3.10;99.90
43015;DHT22;28637;50.554;7.032;2023-02-28T05:25:28;-3.10;99.90
43015;DHT22;28637;50.554;7.032;2023-02-28T05:30:28;-3.10;99.90
43015;DHT22;28637;50.554;7.032;2023-02-28T05:35:30;-3.20;99.90
43015;DHT22;28637;50.554;7.032;2023-02-28T05:40:31;-3.10;99.90
43015;DHT22;28637;50.554;7.032;2023-02-28T05:45:31;-3.10;99.90
43015;DHT22;28637;50.554;7.032;2023-02-28T05:50:32;-3.10;99.90
43015;DHT22;28637;50.554;7.032;2023-02-28T05:55:33;-3.00;99.90
43015;DHT22;28637;50.554;7.032;2023-02-28T06:00:33;-3.10;99.90
43015;DHT22;28637;50.554;7.032;2023-02-28T06:05:34;-3.20;99.90
43015;DHT22;28637;50.554;7.032;2023-02-28T06:10:35;-3.10;99.90
43015;DHT22;28637;50.554;7.032;2023-02-28T06:15:35;-3.10;99.90
43015;DHT22;28637;50.554;7.032;2023-02-28T06:20:36;-3.10;99.90
43015;DHT22;28637;50.554;7.032;2023-02-28T06:25:37;-3.20;99.90
43015;DHT22;28637;50.554;7.032;2023-02-28T06:30:38;-3.30;99.90
43015;DHT22;28637;50.554;7.032;2023-02-28T06:35:39;-3.30;99.90
43015;DHT22;28637;50.554;7.032;2023-02-28T06:40:40;-3.30;99.90
43015;DHT22;28637;50.554;7.032;2023-02-28T06:45:43;-3.30;99.90
43015;DHT22;28637;50.554;7.032;2023-02-28T06:50:44;-3.40;99.90
43015;DHT22;28637;50.554;7.032;2023-02-28T06:55:45;-3.40;99.90
43015;DHT22;28637;50.554;7.032;2023-02-28T07:00:50;-3.30;99.90
43015;DHT22;28637;50.554;7.032;2023-02-28T07:05:50;-3.20;99.90
43015;DHT22;28637;50.554;7.032;2023-02-28T07:10:53;-3.00;99.90
43015;DHT22;28637;50.554;7.032;2023-02-28T07:15:59;-2.70;99.90
43015;DHT22;28637;50.554;7.032;2023-02-28T07:21:05;-2.60;99.90
43015;DHT22;28637;50.554;7.032;2023-02-28T07:26:12;-2.40;99.90
43015;DHT22;28637;50.554;7.032;2023-02-28T07:31:16;-2.10;99.90
43015;DHT22;28637;50.554;7.032;2023-02-28T07:36:17;-1.90;99.90
43015;DHT22;28637;50.554;7.032;2023-02-28T07:41:22;-1.60;99.90
43015;DHT22;28637;50.554;7.032;2023-02-28T07:46:25;-1.20;99.90
43015;DHT22;28637;50.554;7.032;2023-02-28T07:51:25;-0.90;99.90
43015;DHT22;28637;50.554;7.032;2023-02-28T07:56:26;-0.70;99.90
43015;DHT22;28637;50.554;7.032;2023-02-28T08:01:27;-0.40;99.90
43015;DHT22;28637;50.554;7.032;2023-02-28T08:06:27;-0.20;99.90
43015;DHT22;28637;50.554;7.032;2023-02-28T08:11:28;-0.10;99.90
43015;DHT22;28637;50.554;7.032;2023-02-28T08:16:29;0.10;99.90
43015;DHT22;28637;50.554;7.032;2023-02-28T08:21:29;0.20;99.90
43015;DHT22;28637;50.554;7.032;2023-02-28T08:26:30;0.40;99.90
43015;DHT22;28637;50.554;7.032;2023-02-28T08:31:31;0.60;99.90
43015;DHT22;28637;50.554;7.032;2023-02-28T08:36:32;0.90;99.90
43015;DHT22;28637;50.554;7.032;2023-02-28T08:41:33;1.20;99.90
43015;DHT22;28637;50.554;7.032;2023-02-28T08:46:34;1.50;99.90
43015;DHT22;28637;50.554;7.032;2023-02-28T08:51:34;1.80;99.90
43015;DHT22;28637;50.554;7.032;2023-02-28T08:56:35;2.10;99.90
43015;DHT22;28637;50.554;7.032;2023-02-28T09:01:36;2.40;99.90
43015;DHT22;28637;50.554;7.032;2023-02-28T09:06:37;2.70;99.90
43015;DHT22;28637;50.554;7.032;2023-02-28T09:11:38;3.00;99.90
43015;DHT22;28637;50.554;7.032;2023-02-28T09:16:38;3.40;99.90
43015;DHT22;28637;50.554;7.032;2023-02-28T09:21:39;3.70;99.90
43015;DHT22;28637;50.554;7.032;2023-02-28T09:26:40;3.90;99.90
43015;DHT22;28637;50.554;7.032;2023-02-28T09:31:40;3.80;99.90
43015;DHT22;28637;50.554;7.032;2023-02-28T09:36:41;4.00;99.20
43015;DHT22;28637;50.554;7.032;2023-02-28T09:41:48;4.40;97.80
43015;DHT22;28637;50.554;7.032;2023-02-28T09:46:55;4.50;94.40
43015;DHT22;28637;50.554;7.032;2023-02-28T09:52:07;4.30;92.30
43015;DHT22;28637;50.554;7.032;2023-02-28T09:57:37;4.60;93.30
43015;DHT22;28637;50.554;7.032;2023-02-28T10:08:19;5.00;90.60
43015;DHT22;28637;50.554;7.032;2023-02-28T10:23:46;5.80;89.50
43015;DHT22;28637;50.554;7.032;2023-02-28T10:28:48;6.10;85.70
43015;DHT22;28637;50.554;7.032;2023-02-28T10:33:48;6.10;83.10
43015;DHT22;28637;50.554;7.032;2023-02-28T10:38:50;5.50;81.40
43015;DHT22;28637;50.554;7.032;2023-02-28T10:43:51;5.40;83.70
43015;DHT22;28637;50.554;7.032;2023-02-28T10:49:04;5.50;84.50
43015;DHT22;28637;50.554;7.032;2023-02-28T10:54:06;5.50;83.00
43015;DHT22;28637;50.554;7.032;2023-02-28T11:09:35;5.60;78.90
43015;DHT22;28637;50.554;7.032;2023-02-28T11:14:46;5.90;80.60
43015;DHT22;28637;50.554;7.032;2023-02-28T11:19:51;6.20;77.40
43015;DHT22;28637;50.554;7.032;2023-02-28T11:24:56;6.60;78.90
43015;DHT22;28637;50.554;7.032;2023-02-28T11:29:59;6.90;74.10
43015;DHT22;28637;50.554;7.032;2023-02-28T11:35:10;7.40;72.00
43015;DHT22;28637;50.554;7.032;2023-02-28T11:40:18;8.00;72.30
43015;DHT22;28637;50.554;7.032;2023-02-28T11:55:43;8.40;65.70
43015;DHT22;28637;50.554;7.032;2023-02-28T12:06:37;8.30;65.40
43015;DHT22;28637;50.554;7.032;2023-02-28T12:27:11;9.10;63.10
43015;DHT22;28637;50.554;7.032;2023-02-28T12:32:24;9.70;61.80
43015;DHT22;28637;50.554;7.032;2023-02-28T12:37:44;9.80;60.10
43015;DHT22;28637;50.554;7.032;2023-02-28T12:42:56;10.20;60.30
43015;DHT22;28637;50.554;7.032;2023-02-28T12:48:04;10.70;58.00
43015;DHT22;28637;50.554;7.032;2023-02-28T12:58:57;11.20;56.90
43015;DHT22;28637;50.554;7.032;2023-02-28T13:09:27;11.00;56.70
43015;DHT22;28637;50.554;7.032;2023-02-28T13:14:36;11.70;56.40
43015;DHT22;28637;50.554;7.032;2023-02-28T13:19:45;11.60;54.30
43015;DHT22;28637;50.554;7.032;2023-02-28T13:24:50;11.80;54.20
43015;DHT22;28637;50.554;7.032;2023-02-28T13:29:52;12.10;53.60
43015;DHT22;28637;50.554;7.032;2023-02-28T13:39:58;12.00;52.20
43015;DHT22;28637;50.554;7.032;2023-02-28T14:11:36;13.20;50.40
43015;DHT22;28637;50.554;7.032;2023-02-28T14:16:47;13.60;50.00
43015;DHT22;28637;50.554;7.032;2023-02-28T14:22:08;13.70;49.10
43015;DHT22;28637;50.554;7.032;2023-02-28T14:27:34;13.90;48.80
43015;DHT22;28637;50.554;7.032;2023-02-28T14:38:06;14.40;48.80
43015;DHT22;28637;50.554;7.032;2023-02-28T14:43:21;14.70;48.50
43015;DHT22;28637;50.554;7.032;2023-02-28T14:48:23;15.00;47.30
43015;DHT22;28637;50.554;7.032;2023-02-28T14:53:45;15.40;46.00
43015;DHT22;28637;50.554;7.032;2023-02-28T14:58:53;16.20;45.00
43015;DHT22;28637;50.554;7.032;2023-02-28T15:04:03;17.90;42.80
43015;DHT22;28637;50.554;7.032;2023-02-28T15:09:15;19.40;42.00
43015;DHT22;28637;50.554;7.032;2023-02-28T15:14:21;20.20;40.60
43015;DHT22;28637;50.554;7.032;2023-02-28T15:19:28;21.10;39.70
43015;DHT22;28637;50.554;7.032;2023-02-28T15:29:44;21.30;38.20
43015;DHT22;28637;50.554;7.032;2023-02-28T15:34:46;21.50;37.90
43015;DHT22;28637;50.554;7.032;2023-02-28T15:39:50;21.10;38.00
43015;DHT22;28637;50.554;7.032;2023-02-28T15:44:52;21.10;39.90
43015;DHT22;28637;50.554;7.032;2023-02-28T15:49:59;21.00;38.40
43015;DHT22;28637;50.554;7.032;2023-02-28T15:55:15;20.80;38.00
43015;DHT22;28637;50.554;7.032;2023-02-28T16:00:23;20.60;38.80
43015;DHT22;28637;50.554;7.032;2023-02-28T16:05:31;20.30;39.10
43015;DHT22;28637;50.554;7.032;2023-02-28T16:10:32;20.00;39.20
43015;DHT22;28637;50.554;7.032;2023-02-28T16:15:38;19.30;39.20
43015;DHT22;28637;50.554;7.032;2023-02-28T16:20:42;18.70;40.10
43015;DHT22;28637;50.554;7.032;2023-02-28T16:25:45;18.10;40.40
43015;DHT22;28637;50.554;7.032;2023-02-28T16:30:51;17.40;40.70
43015;DHT22;28637;50.554;7.032;2023-02-28T16:35:52;16.80;41.60
43015;DHT22;28637;50.554;7.032;2023-02-28T16:40:56;16.20;42.00
43015;DHT22;28637;50.554;7.032;2023-02-28T16:45:58;15.30;43.80
43015;DHT22;28637;50.554;7.032;2023-02-28T16:50:59;13.50;45.30
43015;DHT22;28637;50.554;7.032;2023-02-28T16:56:00;11.30;48.50
43015;DHT22;28637;50.554;7.032;2023-02-28T17:01:03;9.90;50.80
43015;DHT22;28637;50.554;7.032;2023-02-28T17:06:04;8.90;53.10
43015;DHT22;28637;50.554;7.032;2023-02-28T17:11:05;8.10;54.90
43015;DHT22;28637;50.554;7.032;2023-02-28T17:16:08;7.50;56.40
43015;DHT22;28637;50.554;7.032;2023-02-28T17:21:15;7.00;57.80
43015;DHT22;28637;50.554;7.032;2023-02-28T17:26:18;6.60;60.40
43015;DHT22;28637;50.554;7.032;2023-02-28T17:31:24;6.20;59.80
43015;DHT22;28637;50.554;7.032;2023-02-28T17:36:25;5.60;63.70
43015;DHT22;28637;50.554;7.032;2023-02-28T17:41:26;5.00;66.90
43015;DHT22;28637;50.554;7.032;2023-02-28T17:46:27;4.30;70.70
43015;DHT22;28637;50.554;7.032;2023-02-28T17:51:28;3.90;72.00
43015;DHT22;28637;50.554;7.032;2023-02-28T17:56:29;3.50;73.60
43015;DHT22;28637;50.554;7.032;2023-02-28T18:01:30;3.30;75.10
43015;DHT22;28637;50.554;7.032;2023-02-28T18:06:37;3.00;76.90
43015;DHT22;28637;50.554;7.032;2023-02-28T18:11:46;2.70;79.90
43015;DHT22;28637;50.554;7.032;2023-02-28T18:16:49;2.50;85.50
43015;DHT22;28637;50.554;7.032;2023-02-28T18:21:52;2.20;92.80
43015;DHT22;28637;50.554;7.032;2023-02-28T18:26:53;2.00;96.10
43015;DHT22;28637;50.554;7.032;2023-02-28T18:31:54;1.80;98.70
43015;DHT22;28637;50.554;7.032;2023-02-28T18:36:55;1.60;99.90
43015;DHT22;28637;50.554;7.032;2023-02-28T18:41:57;1.40;99.90
43015;DHT22;28637;50.554;7.032;2023-02-28T18:46:58;1.10;99.90
43015;DHT22;28637;50.554;7.032;2023-02-28T18:51:59;1.10;99.90
43015;DHT22;28637;50.554;7.032;2023-02-28T18:57:01;1.00;99.90
43015;DHT22;28637;50.554;7.032;2023-02-28T19:02:02;0.80;99.90
43015;DHT22;28637;50.554;7.032;2023-02-28T19:07:02;0.70;99.90
43015;DHT22;28637;50.554;7.032;2023-02-28T19:12:03;0.60;99.90
43015;DHT22;28637;50.554;7.032;2023-02-28T19:17:04;0.50;99.90
43015;DHT22;28637;50.554;7.032;2023-02-28T19:22:04;0.30;99.90
43015;DHT22;28637;50.554;7.032;2023-02-28T19:27:05;0.00;99.90
43015;DHT22;28637;50.554;7.032;2023-02-28T19:32:05;0.00;99.90
43015;DHT22;28637;50.554;7.032;2023-02-28T19:37:06;-0.20;99.90
43015;DHT22;28637;50.554;7.032;2023-02-28T19:42:12;-0.20;99.90
43015;DHT22;28637;50.554;7.032;2023-02-28T19:47:14;-0.30;99.90
43015;DHT22;28637;50.554;7.032;2023-02-28T19:52:14;-0.20;99.90
43015;DHT22;28637;50.554;7.032;2023-02-28T19:57:15;-0.20;99.90
43015;DHT22;28637;50.554;7.032;2023-02-28T20:02:18;-0.40;99.90
43015;DHT22;28637;50.554;7.032;2023-02-28T20:07:20;-0.50;99.90
43015;DHT22;28637;50.554;7.032;2023-02-28T20:12:20;-0.60;99.90
43015;DHT22;28637;50.554;7.032;2023-02-28T20:17:23;-0.60;99.90
43015;DHT22;28637;50.554;7.032;2023-02-28T20:22:24;-0.60;99.90
43015;DHT22;28637;50.554;7.032;2023-02-28T20:27:24;-0.60;99.90
43015;DHT22;28637;50.554;7.032;2023-02-28T20:32:25;-0.70;99.90
43015;DHT22;28637;50.554;7.032;2023-02-28T20:37:27;-0.70;99.90
43015;DHT22;28637;50.554;7.032;2023-02-28T20:42:27;-0.70;99.90
43015;DHT22;28637;50.554;7.032;2023-02-28T20:47:28;-0.70;99.90
43015;DHT22;28637;50.554;7.032;2023-02-28T20:52:29;-0.80;99.90
43015;DHT22;28637;50.554;7.032;2023-02-28T20:57:29;-0.80;99.90
43015;DHT22;28637;50.554;7.032;2023-02-28T21:02:30;-0.90;99.90
43015;DHT22;28637;50.554;7.032;2023-02-28T21:07:30;-1.00;99.90
43015;DHT22;28637;50.554;7.032;2023-02-28T21:12:32;-1.00;99.90
43015;DHT22;28637;50.554;7.032;2023-02-28T21:17:32;-1.00;99.90
43015;DHT22;28637;50.554;7.032;2023-02-28T21:22:33;-1.10;99.90
43015;DHT22;28637;50.554;7.032;2023-02-28T21:27:33;-1.20;99.90
43015;DHT22;28637;50.554;7.032;2023-02-28T21:32:34;-1.40;99.90
43015;DHT22;28637;50.554;7.032;2023-02-28T21:37:37;-1.50;99.90
43015;DHT22;28637;50.554;7.032;2023-02-28T21:42:37;-1.40;99.90
43015;DHT22;28637;50.554;7.032;2023-02-28T21:47:38;-1.30;99.90
43015;DHT22;28637;50.554;7.032;2023-02-28T21:52:39;-1.30;99.90
43015;DHT22;28637;50.554;7.032;2023-02-28T21:57:40;-1.30;99.90
43015;DHT22;28637;50.554;7.032;2023-02-28T22:02:41;-1.30;99.90
43015;DHT22;28637;50.554;7.032;2023-02-28T22:07:43;-1.40;99.90
43015;DHT22;28637;50.554;7.032;2023-02-28T22:12:44;-1.30;99.90
43015;DHT22;28637;50.554;7.032;2023-02-28T22:17:44;-1.30;99.90
43015;DHT22;28637;50.554;7.032;2023-02-28T22:22:45;-1.50;99.90
43015;DHT22;28637;50.554;7.032;2023-02-28T22:27:46;-1.50;99.90
43015;DHT22;28637;50.554;7.032;2023-02-28T22:32:46;-1.50;99.90
43015;DHT22;28637;50.554;7.032;2023-02-28T22:37:47;-1.50;99.90
43015;DHT22;28637;50.554;7.032;2023-02-28T22:42:48;-1.50;99.90
43015;DHT22;28637;50.554;7.032;2023-02-28T22:47:48;-1.60;99.90
43015;DHT22;28637;50.554;7.032;2023-02-28T22:52:49;-1.50;99.90
43015;DHT22;28637;50.554;7.032;2023-02-28T22:57:50;-1.30;99.90
43015;DHT22;28637;50.554;7.032;2023-02-28T23:02:50;-1.20;99.90
43015;DHT22;28637;50.554;7.032;2023-02-28T23:07:51;-1.00;99.90
43015;DHT22;28637;50.554;7.032;2023-02-28T23:12:52;-0.90;99.90
43015;DHT22;28637;50.554;7.032;2023-02-28T23:17:52;-0.80;99.90
43015;DHT22;28637;50.554;7.032;2023-02-28T23:22:53;-0.70;99.90
43015;DHT22;28637;50.554;7.032;2023-02-28T23:27:54;-0.80;99.90
43015;DHT22;28637;50.554;7.032;2023-02-28T23:32:55;-1.10;99.90
43015;DHT22;28637;50.554;7.032;2023-02-28T23:37:56;-1.50;99.90
43015;DHT22;28637;50.554;7.032;2023-02-28T23:42:58;-1.40;99.90
43015;DHT22;28637;50.554;7.032;2023-02-28T23:47:58;-1.40;99.90
43015;DHT22;28637;50.554;7.032;2023-02-28T23:52:59;-1.50;99.90
43015;DHT22;28637;50.554;7.032;2023-02-28T23:57:59;-1.50;99.90
